sensor_id;sensor_type;location;lat;lon;timestamp;P1;durP1;ratioP1;P2;durP2;ratioP2
6101;SDS011;3081;50.584;7.032;2023-05-10T00:01:46;4.60;;;0.80;;
6101;SDS011;3081;50.584;7.032;2023-05-10T00:04:13;2.17;;;0.90;;
6101;SDS011;3081;50.584;7.032;2023-05-10T00:06:40;1.80;;;0.67;;
6101;SDS011;3081;50.584;7.032;2023-05-10T00:09:07;2.60;;;0.90;;
6101;SDS011;3081;50.584;7.032;2023-05-10T00:11:33;3.67;;;0.80;;
6101;SDS011;3081;50.584;7.032;2023-05-10T00:14:00;2.13;;;0.70;;
6101;SDS011;3081;50.584;7.032;2023-05-10T00:16:29;1.50;;;0.70;;
6101;SDS011;3081;50.584;7.032;2023-05-10T00:18:55;2.67;;;0.80;;
6101;SDS011;3081;50.584;7.032;2023-05-10T00:21:22;1.93;;;0.87;;
6101;SDS011;3081;50.584;7.032;2023-05-10T00:23:49;1.80;;;0.60;;
6101;SDS011;3081;50.584;7.032;2023-05-10T00:26:16;1.30;;;0.60;;
6101;SDS011;3081;50.584;7.032;2023-05-10T00:28:43;6.30;;;0.90;;
6101;SDS011;3081;50.584;7.032;2023-05-10T00:31:10;1.57;;;0.77;;
6101;SDS011;3081;50.584;7.032;2023-05-10T00:33:38;2.10;;;0.70;;
6101;SDS011;3081;50.584;7.032;2023-05-10T00:36:05;1.50;;;0.70;;
6101;SDS011;3081;50.584;7.032;2023-05-10T00:38:33;2.00;;;0.70;;
6101;SDS011;3081;50.584;7.032;2023-05-10T00:41:00;2.83;;;0.60;;
6101;SDS011;3081;50.584;7.032;2023-05-10T00:43:27;1.30;;;0.60;;
6101;SDS011;3081;50.584;7.032;2023-05-10T00:45:54;1.80;;;0.60;;
6101;SDS011;3081;50.584;7.032;2023-05-10T00:48:21;2.00;;;0.73;;
6101;SDS011;3081;50.584;7.032;2023-05-10T00:50:50;1.30;;;0.67;;
6101;SDS011;3081;50.584;7.032;2023-05-10T00:53:17;1.70;;;0.70;;
6101;SDS011;3081;50.584;7.032;2023-05-10T00:55:44;1.20;;;0.53;;
6101;SDS011;3081;50.584;7.032;2023-05-10T00:58:11;1.90;;;0.73;;
6101;SDS011;3081;50.584;7.032;2023-05-10T01:00:39;1.50;;;0.80;;
6101;SDS011;3081;50.584;7.032;2023-05-10T01:03:08;1.50;;;0.67;;
6101;SDS011;3081;50.584;7.032;2023-05-10T01:05:36;1.53;;;0.67;;
6101;SDS011;3081;50.584;7.032;2023-05-10T01:08:04;1.93;;;0.70;;
6101;SDS011;3081;50.584;7.032;2023-05-10T01:10:31;1.93;;;0.60;;
6101;SDS011;3081;50.584;7.032;2023-05-10T01:12:58;2.17;;;0.83;;
6101;SDS011;3081;50.584;7.032;2023-05-10T01:15:26;4.47;;;0.70;;
6101;SDS011;3081;50.584;7.032;2023-05-10T01:17:53;1.47;;;0.70;;
6101;SDS011;3081;50.584;7.032;2023-05-10T01:20:20;2.03;;;0.90;;
6101;SDS011;3081;50.584;7.032;2023-05-10T01:26:05;1.80;;;0.80;;
6101;SDS011;3081;50.584;7.032;2023-05-10T01:28:49;2.53;;;0.73;;
6101;SDS011;3081;50.584;7.032;2023-05-10T01:32:03;2.30;;;1.00;;
6101;SDS011;3081;50.584;7.032;2023-05-10T01:34:47;1.50;;;0.80;;
6101;SDS011;3081;50.584;7.032;2023-05-10T01:37:20;1.77;;;0.90;;
6101;SDS011;3081;50.584;7.032;2023-05-10T01:39:52;2.30;;;1.00;;
6101;SDS011;3081;50.584;7.032;2023-05-10T01:42:26;2.43;;;1.00;;
6101;SDS011;3081;50.584;7.032;2023-05-10T01:45:02;3.10;;;1.10;;
6101;SDS011;3081;50.584;7.032;2023-05-10T01:47:40;3.53;;;1.10;;
6101;SDS011;3081;50.584;7.032;2023-05-10T01:50:10;1.60;;;0.90;;
6101;SDS011;3081;50.584;7.032;2023-05-10T01:52:50;1.40;;;0.70;;
6101;SDS011;3081;50.584;7.032;2023-05-10T01:55:21;2.20;;;1.10;;
6101;SDS011;3081;50.584;7.032;2023-05-10T01:57:56;1.60;;;0.80;;
6101;SDS011;3081;50.584;7.032;2023-05-10T02:00:27;1.60;;;0.90;;
6101;SDS011;3081;50.584;7.032;2023-05-10T02:02:57;2.13;;;1.00;;
6101;SDS011;3081;50.584;7.032;2023-05-10T02:05:28;2.63;;;1.10;;
6101;SDS011;3081;50.584;7.032;2023-05-10T02:07:58;2.17;;;1.00;;
6101;SDS011;3081;50.584;7.032;2023-05-10T02:10:27;1.77;;;1.10;;
6101;SDS011;3081;50.584;7.032;2023-05-10T02:12:54;1.97;;;1.10;;
6101;SDS011;3081;50.584;7.032;2023-05-10T02:15:24;1.87;;;1.00;;
6101;SDS011;3081;50.584;7.032;2023-05-10T02:17:52;2.07;;;1.10;;
6101;SDS011;3081;50.584;7.032;2023-05-10T02:20:23;2.47;;;1.00;;
6101;SDS011;3081;50.584;7.032;2023-05-10T02:22:52;2.13;;;1.10;;
6101;SDS011;3081;50.584;7.032;2023-05-10T02:25:22;3.73;;;1.40;;
6101;SDS011;3081;50.584;7.032;2023-05-10T02:27:50;2.27;;;1.00;;
6101;SDS011;3081;50.584;7.032;2023-05-10T02:30:20;2.00;;;1.10;;
6101;SDS011;3081;50.584;7.032;2023-05-10T02:32:48;1.70;;;0.80;;
6101;SDS011;3081;50.584;7.032;2023-05-10T02:35:16;2.27;;;1.10;;
6101;SDS011;3081;50.584;7.032;2023-05-10T02:37:45;1.70;;;0.87;;
6101;SDS011;3081;50.584;7.032;2023-05-10T02:40:13;3.13;;;1.50;;
6101;SDS011;3081;50.584;7.032;2023-05-10T02:42:43;2.17;;;1.20;;
6101;SDS011;3081;50.584;7.032;2023-05-10T02:45:12;3.53;;;1.20;;
6101;SDS011;3081;50.584;7.032;2023-05-10T02:47:41;2.20;;;1.30;;
6101;SDS011;3081;50.584;7.032;2023-05-10T02:50:08;4.03;;;1.57;;
6101;SDS011;3081;50.584;7.032;2023-05-10T02:52:39;4.83;;;2.50;;
6101;SDS011;3081;50.584;7.032;2023-05-10T02:55:09;3.83;;;1.80;;
6101;SDS011;3081;50.584;7.032;2023-05-10T02:57:41;5.30;;;2.67;;
6101;SDS011;3081;50.584;7.032;2023-05-10T03:00:14;4.10;;;2.30;;
6101;SDS011;3081;50.584;7.032;2023-05-10T03:02:41;4.87;;;3.00;;
6101;SDS011;3081;50.584;7.032;2023-05-10T03:05:08;6.97;;;3.53;;
6101;SDS011;3081;50.584;7.032;2023-05-10T03:07:35;4.37;;;2.77;;
6101;SDS011;3081;50.584;7.032;2023-05-10T03:10:02;6.40;;;2.47;;
6101;SDS011;3081;50.584;7.032;2023-05-10T03:12:33;6.87;;;2.60;;
6101;SDS011;3081;50.584;7.032;2023-05-10T03:15:17;6.90;;;2.70;;
6101;SDS011;3081;50.584;7.032;2023-05-10T03:17:52;5.57;;;2.23;;
6101;SDS011;3081;50.584;7.032;2023-05-10T03:20:24;5.13;;;2.50;;
6101;SDS011;3081;50.584;7.032;2023-05-10T03:22:55;4.40;;;2.30;;
6101;SDS011;3081;50.584;7.032;2023-05-10T03:25:30;7.20;;;2.80;;
6101;SDS011;3081;50.584;7.032;2023-05-10T03:27:59;4.97;;;2.83;;
6101;SDS011;3081;50.584;7.032;2023-05-10T03:30:27;6.57;;;2.80;;
6101;SDS011;3081;50.584;7.032;2023-05-10T03:32:55;8.00;;;2.70;;
6101;SDS011;3081;50.584;7.032;2023-05-10T03:35:22;7.50;;;2.90;;
6101;SDS011;3081;50.584;7.032;2023-05-10T03:37:50;6.70;;;2.90;;
6101;SDS011;3081;50.584;7.032;2023-05-10T03:40:17;8.90;;;3.00;;
6101;SDS011;3081;50.584;7.032;2023-05-10T03:42:44;6.10;;;3.23;;
6101;SDS011;3081;50.584;7.032;2023-05-10T03:45:12;5.63;;;2.90;;
6101;SDS011;3081;50.584;7.032;2023-05-10T03:47:39;6.03;;;3.13;;
6101;SDS011;3081;50.584;7.032;2023-05-10T03:50:06;8.10;;;2.97;;
6101;SDS011;3081;50.584;7.032;2023-05-10T03:52:35;4.63;;;2.40;;
6101;SDS011;3081;50.584;7.032;2023-05-10T03:55:04;6.77;;;3.00;;
6101;SDS011;3081;50.584;7.032;2023-05-10T03:57:32;8.43;;;4.00;;
6101;SDS011;3081;50.584;7.032;2023-05-10T03:59:59;4.47;;;2.70;;
6101;SDS011;3081;50.584;7.032;2023-05-10T04:02:27;7.20;;;2.70;;
6101;SDS011;3081;50.584;7.032;2023-05-10T04:04:54;6.07;;;3.27;;
6101;SDS011;3081;50.584;7.032;2023-05-10T04:07:21;4.90;;;2.90;;
6101;SDS011;3081;50.584;7.032;2023-05-10T04:09:49;5.87;;;2.50;;
6101;SDS011;3081;50.584;7.032;2023-05-10T04:12:16;5.33;;;2.77;;
6101;SDS011;3081;50.584;7.032;2023-05-10T04:14:43;4.60;;;2.50;;
6101;SDS011;3081;50.584;7.032;2023-05-10T04:17:09;3.77;;;2.27;;
6101;SDS011;3081;50.584;7.032;2023-05-10T04:19:38;3.67;;;2.20;;
6101;SDS011;3081;50.584;7.032;2023-05-10T04:22:05;4.63;;;2.27;;
6101;SDS011;3081;50.584;7.032;2023-05-10T04:24:31;5.50;;;2.90;;
6101;SDS011;3081;50.584;7.032;2023-05-10T04:26:58;4.27;;;2.40;;
6101;SDS011;3081;50.584;7.032;2023-05-10T04:29:26;4.67;;;2.70;;
6101;SDS011;3081;50.584;7.032;2023-05-10T04:31:53;7.90;;;3.13;;
6101;SDS011;3081;50.584;7.032;2023-05-10T04:34:21;6.63;;;3.07;;
6101;SDS011;3081;50.584;7.032;2023-05-10T04:36:49;5.57;;;2.87;;
6101;SDS011;3081;50.584;7.032;2023-05-10T04:39:16;4.90;;;2.60;;
6101;SDS011;3081;50.584;7.032;2023-05-10T04:41:43;3.93;;;2.40;;
6101;SDS011;3081;50.584;7.032;2023-05-10T04:44:10;8.20;;;2.90;;
6101;SDS011;3081;50.584;7.032;2023-05-10T04:46:37;5.37;;;2.00;;
6101;SDS011;3081;50.584;7.032;2023-05-10T04:49:04;4.87;;;2.73;;
6101;SDS011;3081;50.584;7.032;2023-05-10T04:51:31;4.40;;;2.20;;
6101;SDS011;3081;50.584;7.032;2023-05-10T04:53:59;5.30;;;2.10;;
6101;SDS011;3081;50.584;7.032;2023-05-10T04:56:26;3.30;;;2.20;;
6101;SDS011;3081;50.584;7.032;2023-05-10T04:58:53;6.57;;;2.90;;
6101;SDS011;3081;50.584;7.032;2023-05-10T05:01:20;3.87;;;2.43;;
6101;SDS011;3081;50.584;7.032;2023-05-10T05:03:48;4.60;;;2.70;;
6101;SDS011;3081;50.584;7.032;2023-05-10T05:06:15;5.07;;;2.07;;
6101;SDS011;3081;50.584;7.032;2023-05-10T05:08:41;4.40;;;2.53;;
6101;SDS011;3081;50.584;7.032;2023-05-10T05:11:10;4.93;;;2.17;;
6101;SDS011;3081;50.584;7.032;2023-05-10T05:13:37;2.60;;;1.70;;
6101;SDS011;3081;50.584;7.032;2023-05-10T05:16:04;7.80;;;2.27;;
6101;SDS011;3081;50.584;7.032;2023-05-10T05:18:31;2.77;;;1.90;;
6101;SDS011;3081;50.584;7.032;2023-05-10T05:20:58;3.20;;;2.10;;
6101;SDS011;3081;50.584;7.032;2023-05-10T05:23:26;3.13;;;1.90;;
6101;SDS011;3081;50.584;7.032;2023-05-10T05:25:53;2.93;;;1.80;;
6101;SDS011;3081;50.584;7.032;2023-05-10T05:28:21;3.30;;;1.97;;
6101;SDS011;3081;50.584;7.032;2023-05-10T05:30:48;3.20;;;2.00;;
6101;SDS011;3081;50.584;7.032;2023-05-10T05:33:15;6.50;;;4.13;;
6101;SDS011;3081;50.584;7.032;2023-05-10T05:35:42;4.67;;;2.00;;
6101;SDS011;3081;50.584;7.032;2023-05-10T05:38:12;7.27;;;4.20;;
6101;SDS011;3081;50.584;7.032;2023-05-10T05:40:39;4.10;;;2.03;;
6101;SDS011;3081;50.584;7.032;2023-05-10T05:43:06;8.90;;;2.40;;
6101;SDS011;3081;50.584;7.032;2023-05-10T05:45:34;4.13;;;2.30;;
6101;SDS011;3081;50.584;7.032;2023-05-10T05:48:01;3.72;;;2.00;;
6101;SDS011;3081;50.584;7.032;2023-05-10T05:50:28;8.77;;;2.20;;
6101;SDS011;3081;50.584;7.032;2023-05-10T05:52:56;3.70;;;2.07;;
6101;SDS011;3081;50.584;7.032;2023-05-10T05:55:22;4.00;;;2.70;;
6101;SDS011;3081;50.584;7.032;2023-05-10T05:57:50;7.00;;;2.37;;
6101;SDS011;3081;50.584;7.032;2023-05-10T06:00:17;3.10;;;2.00;;
6101;SDS011;3081;50.584;7.032;2023-05-10T06:02:46;4.80;;;2.90;;
6101;SDS011;3081;50.584;7.032;2023-05-10T06:05:13;4.13;;;2.13;;
6101;SDS011;3081;50.584;7.032;2023-05-10T06:07:40;3.67;;;2.30;;
6101;SDS011;3081;50.584;7.032;2023-05-10T06:10:08;4.10;;;2.17;;
6101;SDS011;3081;50.584;7.032;2023-05-10T06:12:35;7.03;;;3.40;;
6101;SDS011;3081;50.584;7.032;2023-05-10T06:15:02;4.40;;;2.90;;
6101;SDS011;3081;50.584;7.032;2023-05-10T06:17:30;4.60;;;2.53;;
6101;SDS011;3081;50.584;7.032;2023-05-10T06:19:58;5.70;;;2.80;;
6101;SDS011;3081;50.584;7.032;2023-05-10T06:22:25;4.00;;;2.30;;
6101;SDS011;3081;50.584;7.032;2023-05-10T06:24:52;4.40;;;2.40;;
6101;SDS011;3081;50.584;7.032;2023-05-10T06:27:18;5.33;;;2.87;;
6101;SDS011;3081;50.584;7.032;2023-05-10T06:29:45;6.10;;;2.80;;
6101;SDS011;3081;50.584;7.032;2023-05-10T06:32:12;4.60;;;2.57;;
6101;SDS011;3081;50.584;7.032;2023-05-10T06:34:39;4.00;;;2.47;;
6101;SDS011;3081;50.584;7.032;2023-05-10T06:37:09;4.77;;;1.93;;
6101;SDS011;3081;50.584;7.032;2023-05-10T06:39:36;6.83;;;3.23;;
6101;SDS011;3081;50.584;7.032;2023-05-10T06:42:03;6.83;;;2.97;;
6101;SDS011;3081;50.584;7.032;2023-05-10T06:44:30;3.83;;;2.37;;
6101;SDS011;3081;50.584;7.032;2023-05-10T06:46:57;6.60;;;2.50;;
6101;SDS011;3081;50.584;7.032;2023-05-10T06:49:24;5.83;;;2.17;;
6101;SDS011;3081;50.584;7.032;2023-05-10T06:51:51;5.67;;;3.13;;
6101;SDS011;3081;50.584;7.032;2023-05-10T06:54:19;10.17;;;3.27;;
6101;SDS011;3081;50.584;7.032;2023-05-10T06:56:46;5.10;;;2.70;;
6101;SDS011;3081;50.584;7.032;2023-05-10T06:59:13;5.27;;;2.77;;
6101;SDS011;3081;50.584;7.032;2023-05-10T07:01:41;5.40;;;3.00;;
6101;SDS011;3081;50.584;7.032;2023-05-10T07:04:08;6.17;;;3.20;;
6101;SDS011;3081;50.584;7.032;2023-05-10T07:06:35;5.00;;;2.70;;
6101;SDS011;3081;50.584;7.032;2023-05-10T07:09:02;7.80;;;2.27;;
6101;SDS011;3081;50.584;7.032;2023-05-10T07:11:30;3.80;;;2.00;;
6101;SDS011;3081;50.584;7.032;2023-05-10T07:13:57;5.50;;;3.00;;
6101;SDS011;3081;50.584;7.032;2023-05-10T07:16:24;7.20;;;2.07;;
6101;SDS011;3081;50.584;7.032;2023-05-10T07:18:51;4.97;;;1.97;;
6101;SDS011;3081;50.584;7.032;2023-05-10T07:21:18;5.20;;;2.77;;
6101;SDS011;3081;50.584;7.032;2023-05-10T07:23:45;4.80;;;2.40;;
6101;SDS011;3081;50.584;7.032;2023-05-10T07:26:12;6.50;;;2.90;;
6101;SDS011;3081;50.584;7.032;2023-05-10T07:28:41;5.40;;;3.00;;
6101;SDS011;3081;50.584;7.032;2023-05-10T07:31:08;9.80;;;2.90;;
6101;SDS011;3081;50.584;7.032;2023-05-10T07:33:35;4.10;;;2.20;;
6101;SDS011;3081;50.584;7.032;2023-05-10T07:36:02;4.00;;;2.00;;
6101;SDS011;3081;50.584;7.032;2023-05-10T07:38:29;4.97;;;2.00;;
6101;SDS011;3081;50.584;7.032;2023-05-10T07:40:56;4.87;;;2.03;;
6101;SDS011;3081;50.584;7.032;2023-05-10T07:43:23;5.67;;;3.00;;
6101;SDS011;3081;50.584;7.032;2023-05-10T07:45:51;4.53;;;2.10;;
6101;SDS011;3081;50.584;7.032;2023-05-10T07:48:18;5.63;;;2.20;;
6101;SDS011;3081;50.584;7.032;2023-05-10T07:50:45;4.03;;;2.03;;
6101;SDS011;3081;50.584;7.032;2023-05-10T07:53:12;6.57;;;2.00;;
6101;SDS011;3081;50.584;7.032;2023-05-10T07:55:38;8.70;;;2.40;;
6101;SDS011;3081;50.584;7.032;2023-05-10T07:58:05;7.57;;;2.40;;
6101;SDS011;3081;50.584;7.032;2023-05-10T08:00:33;5.20;;;1.93;;
6101;SDS011;3081;50.584;7.032;2023-05-10T08:03:01;5.63;;;2.57;;
6101;SDS011;3081;50.584;7.032;2023-05-10T08:05:28;5.87;;;2.73;;
6101;SDS011;3081;50.584;7.032;2023-05-10T08:07:56;6.63;;;2.90;;
6101;SDS011;3081;50.584;7.032;2023-05-10T08:10:23;6.10;;;2.70;;
6101;SDS011;3081;50.584;7.032;2023-05-10T08:12:51;6.07;;;2.60;;
6101;SDS011;3081;50.584;7.032;2023-05-10T08:15:18;6.70;;;3.10;;
6101;SDS011;3081;50.584;7.032;2023-05-10T08:17:45;4.63;;;2.30;;
6101;SDS011;3081;50.584;7.032;2023-05-10T08:20:13;4.23;;;2.03;;
6101;SDS011;3081;50.584;7.032;2023-05-10T08:22:41;4.57;;;2.43;;
6101;SDS011;3081;50.584;7.032;2023-05-10T08:25:08;4.83;;;1.63;;
6101;SDS011;3081;50.584;7.032;2023-05-10T08:27:35;4.40;;;1.90;;
6101;SDS011;3081;50.584;7.032;2023-05-10T08:30:02;4.30;;;1.67;;
6101;SDS011;3081;50.584;7.032;2023-05-10T08:32:30;5.33;;;1.57;;
6101;SDS011;3081;50.584;7.032;2023-05-10T08:34:57;6.43;;;0.93;;
6101;SDS011;3081;50.584;7.032;2023-05-10T08:37:25;3.30;;;0.90;;
6101;SDS011;3081;50.584;7.032;2023-05-10T08:39:57;2.90;;;0.67;;
6101;SDS011;3081;50.584;7.032;2023-05-10T08:42:24;2.60;;;0.40;;
6101;SDS011;3081;50.584;7.032;2023-05-10T08:44:54;3.00;;;0.57;;
6101;SDS011;3081;50.584;7.032;2023-05-10T08:47:23;3.70;;;0.60;;
6101;SDS011;3081;50.584;7.032;2023-05-10T08:49:51;3.27;;;0.50;;
6101;SDS011;3081;50.584;7.032;2023-05-10T08:52:19;4.50;;;0.70;;
6101;SDS011;3081;50.584;7.032;2023-05-10T08:54:49;2.60;;;0.50;;
6101;SDS011;3081;50.584;7.032;2023-05-10T08:57:16;2.80;;;0.70;;
6101;SDS011;3081;50.584;7.032;2023-05-10T08:59:43;2.80;;;0.77;;
6101;SDS011;3081;50.584;7.032;2023-05-10T09:02:10;3.27;;;0.90;;
6101;SDS011;3081;50.584;7.032;2023-05-10T09:04:39;3.93;;;0.80;;
6101;SDS011;3081;50.584;7.032;2023-05-10T09:07:06;7.73;;;0.80;;
6101;SDS011;3081;50.584;7.032;2023-05-10T09:09:33;6.27;;;2.83;;
6101;SDS011;3081;50.584;7.032;2023-05-10T09:12:02;2.60;;;0.70;;
6101;SDS011;3081;50.584;7.032;2023-05-10T09:14:29;2.63;;;0.73;;
6101;SDS011;3081;50.584;7.032;2023-05-10T09:17:00;2.60;;;0.60;;
6101;SDS011;3081;50.584;7.032;2023-05-10T09:19:27;2.50;;;0.50;;
6101;SDS011;3081;50.584;7.032;2023-05-10T09:21:54;6.80;;;0.70;;
6101;SDS011;3081;50.584;7.032;2023-05-10T09:24:24;2.77;;;0.60;;
6101;SDS011;3081;50.584;7.032;2023-05-10T09:26:51;2.80;;;0.80;;
6101;SDS011;3081;50.584;7.032;2023-05-10T09:29:20;2.60;;;0.53;;
6101;SDS011;3081;50.584;7.032;2023-05-10T09:31:48;4.10;;;0.73;;
6101;SDS011;3081;50.584;7.032;2023-05-10T09:34:19;2.30;;;0.60;;
6101;SDS011;3081;50.584;7.032;2023-05-10T09:36:54;2.60;;;0.60;;
6101;SDS011;3081;50.584;7.032;2023-05-10T09:39:29;3.23;;;0.60;;
6101;SDS011;3081;50.584;7.032;2023-05-10T09:41:58;2.30;;;0.60;;
6101;SDS011;3081;50.584;7.032;2023-05-10T09:44:27;2.40;;;0.70;;
6101;SDS011;3081;50.584;7.032;2023-05-10T09:46:54;2.40;;;0.50;;
6101;SDS011;3081;50.584;7.032;2023-05-10T09:49:21;2.83;;;0.60;;
6101;SDS011;3081;50.584;7.032;2023-05-10T09:51:57;2.20;;;0.40;;
6101;SDS011;3081;50.584;7.032;2023-05-10T09:54:27;2.30;;;0.50;;
6101;SDS011;3081;50.584;7.032;2023-05-10T09:56:54;3.60;;;0.67;;
6101;SDS011;3081;50.584;7.032;2023-05-10T09:59:21;2.30;;;0.50;;
6101;SDS011;3081;50.584;7.032;2023-05-10T10:01:52;3.30;;;0.73;;
6101;SDS011;3081;50.584;7.032;2023-05-10T10:04:21;2.60;;;0.57;;
6101;SDS011;3081;50.584;7.032;2023-05-10T10:06:57;4.13;;;0.63;;
6101;SDS011;3081;50.584;7.032;2023-05-10T10:09:26;2.60;;;0.50;;
6101;SDS011;3081;50.584;7.032;2023-05-10T10:11:53;2.70;;;0.50;;
6101;SDS011;3081;50.584;7.032;2023-05-10T10:14:21;3.00;;;0.50;;
6101;SDS011;3081;50.584;7.032;2023-05-10T10:16:48;3.83;;;0.60;;
6101;SDS011;3081;50.584;7.032;2023-05-10T10:19:17;3.40;;;0.80;;
6101;SDS011;3081;50.584;7.032;2023-05-10T10:21:45;3.13;;;0.60;;
6101;SDS011;3081;50.584;7.032;2023-05-10T10:24:12;3.10;;;0.40;;
6101;SDS011;3081;50.584;7.032;2023-05-10T10:26:39;5.43;;;2.27;;
6101;SDS011;3081;50.584;7.032;2023-05-10T10:29:10;3.20;;;0.60;;
6101;SDS011;3081;50.584;7.032;2023-05-10T10:31:45;3.67;;;0.60;;
6101;SDS011;3081;50.584;7.032;2023-05-10T10:34:21;3.20;;;0.60;;
6101;SDS011;3081;50.584;7.032;2023-05-10T10:36:52;3.30;;;0.60;;
6101;SDS011;3081;50.584;7.032;2023-05-10T10:39:20;3.30;;;0.53;;
6101;SDS011;3081;50.584;7.032;2023-05-10T10:41:50;3.17;;;0.60;;
6101;SDS011;3081;50.584;7.032;2023-05-10T10:44:24;3.00;;;0.50;;
6101;SDS011;3081;50.584;7.032;2023-05-10T10:47:02;3.83;;;0.67;;
6101;SDS011;3081;50.584;7.032;2023-05-10T10:49:43;3.33;;;0.70;;
6101;SDS011;3081;50.584;7.032;2023-05-10T10:52:20;3.10;;;0.70;;
6101;SDS011;3081;50.584;7.032;2023-05-10T10:54:51;4.20;;;0.90;;
6101;SDS011;3081;50.584;7.032;2023-05-10T10:57:20;4.90;;;0.73;;
6101;SDS011;3081;50.584;7.032;2023-05-10T10:59:51;4.70;;;0.70;;
6101;SDS011;3081;50.584;7.032;2023-05-10T11:02:45;3.30;;;0.60;;
6101;SDS011;3081;50.584;7.032;2023-05-10T11:05:24;6.00;;;0.87;;
6101;SDS011;3081;50.584;7.032;2023-05-10T11:07:59;3.50;;;0.50;;
6101;SDS011;3081;50.584;7.032;2023-05-10T11:10:32;4.47;;;0.60;;
6101;SDS011;3081;50.584;7.032;2023-05-10T11:13:00;6.33;;;0.90;;
6101;SDS011;3081;50.584;7.032;2023-05-10T11:15:28;3.30;;;0.70;;
6101;SDS011;3081;50.584;7.032;2023-05-10T11:17:56;3.40;;;0.57;;
6101;SDS011;3081;50.584;7.032;2023-05-10T11:20:23;6.90;;;1.50;;
6101;SDS011;3081;50.584;7.032;2023-05-10T11:22:58;6.53;;;0.87;;
6101;SDS011;3081;50.584;7.032;2023-05-10T11:25:41;4.17;;;0.90;;
6101;SDS011;3081;50.584;7.032;2023-05-10T11:28:09;4.30;;;0.70;;
6101;SDS011;3081;50.584;7.032;2023-05-10T11:30:36;3.90;;;0.60;;
6101;SDS011;3081;50.584;7.032;2023-05-10T11:33:04;5.10;;;0.60;;
6101;SDS011;3081;50.584;7.032;2023-05-10T11:35:33;4.10;;;0.70;;
6101;SDS011;3081;50.584;7.032;2023-05-10T11:38:05;6.17;;;0.60;;
6101;SDS011;3081;50.584;7.032;2023-05-10T11:40:32;3.83;;;0.70;;
6101;SDS011;3081;50.584;7.032;2023-05-10T11:43:00;3.80;;;0.70;;
6101;SDS011;3081;50.584;7.032;2023-05-10T11:45:27;4.10;;;0.87;;
6101;SDS011;3081;50.584;7.032;2023-05-10T11:47:54;3.73;;;0.77;;
6101;SDS011;3081;50.584;7.032;2023-05-10T11:50:21;3.40;;;0.60;;
6101;SDS011;3081;50.584;7.032;2023-05-10T11:52:51;3.67;;;0.90;;
6101;SDS011;3081;50.584;7.032;2023-05-10T11:55:18;4.63;;;1.20;;
6101;SDS011;3081;50.584;7.032;2023-05-10T11:57:45;3.50;;;0.80;;
6101;SDS011;3081;50.584;7.032;2023-05-10T12:00:13;5.10;;;1.00;;
6101;SDS011;3081;50.584;7.032;2023-05-10T12:02:40;4.00;;;1.10;;
6101;SDS011;3081;50.584;7.032;2023-05-10T12:05:08;3.77;;;0.87;;
6101;SDS011;3081;50.584;7.032;2023-05-10T12:07:36;3.53;;;0.63;;
6101;SDS011;3081;50.584;7.032;2023-05-10T12:10:05;3.90;;;0.90;;
6101;SDS011;3081;50.584;7.032;2023-05-10T12:12:37;4.00;;;0.80;;
6101;SDS011;3081;50.584;7.032;2023-05-10T12:15:05;4.27;;;0.87;;
6101;SDS011;3081;50.584;7.032;2023-05-10T12:17:36;5.00;;;0.83;;
6101;SDS011;3081;50.584;7.032;2023-05-10T12:20:13;4.00;;;0.67;;
6101;SDS011;3081;50.584;7.032;2023-05-10T12:22:43;4.10;;;0.90;;
6101;SDS011;3081;50.584;7.032;2023-05-10T12:25:12;4.73;;;1.23;;
6101;SDS011;3081;50.584;7.032;2023-05-10T12:27:39;4.47;;;1.10;;
6101;SDS011;3081;50.584;7.032;2023-05-10T12:30:07;4.80;;;1.40;;
6101;SDS011;3081;50.584;7.032;2023-05-10T12:32:38;5.57;;;1.50;;
6101;SDS011;3081;50.584;7.032;2023-05-10T12:35:06;6.60;;;1.50;;
6101;SDS011;3081;50.584;7.032;2023-05-10T12:37:34;4.63;;;1.20;;
6101;SDS011;3081;50.584;7.032;2023-05-10T12:40:05;4.80;;;1.20;;
6101;SDS011;3081;50.584;7.032;2023-05-10T12:42:35;4.77;;;1.10;;
6101;SDS011;3081;50.584;7.032;2023-05-10T12:45:03;4.70;;;1.20;;
6101;SDS011;3081;50.584;7.032;2023-05-10T12:47:31;5.23;;;1.40;;
6101;SDS011;3081;50.584;7.032;2023-05-10T12:49:59;5.20;;;1.27;;
6101;SDS011;3081;50.584;7.032;2023-05-10T12:52:27;6.07;;;1.67;;
6101;SDS011;3081;50.584;7.032;2023-05-10T12:54:54;7.30;;;1.77;;
6101;SDS011;3081;50.584;7.032;2023-05-10T12:57:21;7.20;;;2.33;;
6101;SDS011;3081;50.584;7.032;2023-05-10T12:59:49;8.00;;;1.43;;
6101;SDS011;3081;50.584;7.032;2023-05-10T13:02:16;8.03;;;1.67;;
6101;SDS011;3081;50.584;7.032;2023-05-10T13:04:44;7.37;;;1.33;;
6101;SDS011;3081;50.584;7.032;2023-05-10T13:07:11;8.50;;;1.70;;
6101;SDS011;3081;50.584;7.032;2023-05-10T13:09:39;7.90;;;1.80;;
6101;SDS011;3081;50.584;7.032;2023-05-10T13:12:06;9.47;;;1.67;;
6101;SDS011;3081;50.584;7.032;2023-05-10T13:14:32;7.07;;;1.53;;
6101;SDS011;3081;50.584;7.032;2023-05-10T13:17:01;12.10;;;1.80;;
6101;SDS011;3081;50.584;7.032;2023-05-10T13:19:28;18.47;;;3.43;;
6101;SDS011;3081;50.584;7.032;2023-05-10T13:21:55;7.07;;;1.60;;
6101;SDS011;3081;50.584;7.032;2023-05-10T13:24:21;6.83;;;1.67;;
6101;SDS011;3081;50.584;7.032;2023-05-10T13:26:48;7.23;;;1.80;;
6101;SDS011;3081;50.584;7.032;2023-05-10T13:29:15;6.90;;;1.60;;
6101;SDS011;3081;50.584;7.032;2023-05-10T13:31:43;11.63;;;2.70;;
6101;SDS011;3081;50.584;7.032;2023-05-10T13:34:11;5.60;;;1.63;;
6101;SDS011;3081;50.584;7.032;2023-05-10T13:36:38;5.10;;;2.13;;
6101;SDS011;3081;50.584;7.032;2023-05-10T13:39:05;5.37;;;1.10;;
6101;SDS011;3081;50.584;7.032;2023-05-10T13:41:32;2.90;;;0.70;;
6101;SDS011;3081;50.584;7.032;2023-05-10T13:43:59;4.20;;;1.37;;
6101;SDS011;3081;50.584;7.032;2023-05-10T13:46:26;3.77;;;1.40;;
6101;SDS011;3081;50.584;7.032;2023-05-10T13:48:54;10.07;;;4.57;;
6101;SDS011;3081;50.584;7.032;2023-05-10T13:51:23;4.00;;;1.50;;
6101;SDS011;3081;50.584;7.032;2023-05-10T13:53:50;6.77;;;3.07;;
6101;SDS011;3081;50.584;7.032;2023-05-10T13:56:17;10.60;;;5.93;;
6101;SDS011;3081;50.584;7.032;2023-05-10T13:58:44;6.20;;;3.13;;
6101;SDS011;3081;50.584;7.032;2023-05-10T14:01:11;9.33;;;7.27;;
6101;SDS011;3081;50.584;7.032;2023-05-10T14:03:38;7.13;;;2.83;;
6101;SDS011;3081;50.584;7.032;2023-05-10T14:06:05;6.83;;;1.80;;
6101;SDS011;3081;50.584;7.032;2023-05-10T14:08:35;5.90;;;1.57;;
6101;SDS011;3081;50.584;7.032;2023-05-10T14:11:02;3.93;;;1.40;;
6101;SDS011;3081;50.584;7.032;2023-05-10T14:13:29;5.17;;;1.57;;
6101;SDS011;3081;50.584;7.032;2023-05-10T14:15:56;4.30;;;1.30;;
6101;SDS011;3081;50.584;7.032;2023-05-10T14:18:23;5.17;;;1.40;;
6101;SDS011;3081;50.584;7.032;2023-05-10T14:20:50;4.20;;;1.37;;
6101;SDS011;3081;50.584;7.032;2023-05-10T14:23:17;6.20;;;2.47;;
6101;SDS011;3081;50.584;7.032;2023-05-10T14:25:50;5.00;;;1.70;;
6101;SDS011;3081;50.584;7.032;2023-05-10T14:28:17;8.23;;;4.80;;
6101;SDS011;3081;50.584;7.032;2023-05-10T14:30:45;17.10;;;11.20;;
6101;SDS011;3081;50.584;7.032;2023-05-10T14:33:12;9.90;;;6.40;;
6101;SDS011;3081;50.584;7.032;2023-05-10T14:35:39;7.10;;;2.93;;
6101;SDS011;3081;50.584;7.032;2023-05-10T14:38:06;5.40;;;2.83;;
6101;SDS011;3081;50.584;7.032;2023-05-10T14:40:33;11.60;;;4.90;;
6101;SDS011;3081;50.584;7.032;2023-05-10T14:43:02;7.43;;;1.90;;
6101;SDS011;3081;50.584;7.032;2023-05-10T14:45:29;4.47;;;2.00;;
6101;SDS011;3081;50.584;7.032;2023-05-10T14:47:56;5.87;;;3.37;;
6101;SDS011;3081;50.584;7.032;2023-05-10T14:50:24;5.23;;;3.00;;
6101;SDS011;3081;50.584;7.032;2023-05-10T14:52:51;5.67;;;2.17;;
6101;SDS011;3081;50.584;7.032;2023-05-10T14:55:17;5.77;;;1.23;;
6101;SDS011;3081;50.584;7.032;2023-05-10T14:57:45;3.57;;;1.23;;
6101;SDS011;3081;50.584;7.032;2023-05-10T15:00:16;4.20;;;1.47;;
6101;SDS011;3081;50.584;7.032;2023-05-10T15:02:44;2.80;;;1.10;;
6101;SDS011;3081;50.584;7.032;2023-05-10T15:05:11;2.90;;;1.37;;
6101;SDS011;3081;50.584;7.032;2023-05-10T15:07:38;4.10;;;1.80;;
6101;SDS011;3081;50.584;7.032;2023-05-10T15:10:05;5.40;;;2.30;;
6101;SDS011;3081;50.584;7.032;2023-05-10T15:12:33;3.97;;;1.97;;
6101;SDS011;3081;50.584;7.032;2023-05-10T15:15:00;4.80;;;1.87;;
6101;SDS011;3081;50.584;7.032;2023-05-10T15:17:28;6.07;;;2.07;;
6101;SDS011;3081;50.584;7.032;2023-05-10T15:19:55;5.30;;;2.43;;
6101;SDS011;3081;50.584;7.032;2023-05-10T15:22:22;4.50;;;1.50;;
6101;SDS011;3081;50.584;7.032;2023-05-10T15:24:49;5.23;;;1.70;;
6101;SDS011;3081;50.584;7.032;2023-05-10T15:27:16;3.90;;;1.47;;